Time;durP1;ratioP1;P1;durP2;ratioP2;P2;SDS_P1;SDS_P2;PMS_P1;PMS_P2;Temp;Humidity;BMP_temperature;BMP_pressure;BME280_temperature;BME280_humidity;BME280_pressure;Samples;Min_cycle;Max_cycle;Signal;HPM_P1;HPM_P2
2023/08/16 00:02:22;;;;;;;0.00;0.00;;;21.50;99.90;;;;;;5083151;28;20027;-76
2023/08/16 00:04:48;;;;;;;;;;;21.50;99.90;;;;;;5081208;28;20024;-76
2023/08/16 00:07:14;;;;;;;0.20;0.20;;;21.60;99.90;;;;;;5081794;28;19924;-77
2023/08/16 00:09:40;;;;;;;0.27;0.27;;;21.60;99.90;;;;;;5076306;28;20327;-76
2023/08/16 00:12:06;;;;;;;0.00;0.00;;;21.50;99.90;;;;;;5082158;28;20206;-78
2023/08/16 00:14:32;;;;;;;0.25;0.20;;;21.50;99.90;;;;;;5082556;28;20262;-76
2023/08/16 00:16:57;;;;;;;0.10;0.10;;;21.50;99.90;;;;;;5083171;28;20097;-76
2023/08/16 00:19:24;;;;;;;0.10;0.10;;;21.60;99.90;;;;;;5082636;28;20024;-76
2023/08/16 00:21:50;;;;;;;0.30;0.30;;;21.60;99.90;;;;;;5083147;28;20020;-77
2023/08/16 00:24:16;;;;;;;0.25;0.25;;;21.60;99.90;;;;;;5083413;28;20024;-77
2023/08/16 00:26:41;;;;;;;0.27;0.10;;;21.70;99.90;;;;;;5082566;28;20487;-79
2023/08/16 00:29:07;;;;;;;0.23;0.23;;;21.60;99.90;;;;;;5082810;28;20042;-77
2023/08/16 00:31:33;;;;;;;0.00;0.00;;;21.60;99.90;;;;;;5082813;28;20491;-77
2023/08/16 00:33:58;;;;;;;0.00;0.00;;;21.50;99.90;;;;;;5082668;28;20031;-77
2023/08/16 00:36:24;;;;;;;0.23;0.23;;;21.40;99.90;;;;;;5082278;28;20454;-77
2023/08/16 00:38:50;;;;;;;1.33;1.20;;;21.40;99.90;;;;;;5077318;28;20028;-77
2023/08/16 00:41:16;;;;;;;0.00;0.00;;;21.40;99.90;;;;;;5083304;28;20095;-78
2023/08/16 00:43:41;;;;;;;0.00;0.00;;;21.40;99.90;;;;;;5082644;28;20020;-78
2023/08/16 00:46:11;;;;;;;0.03;0.03;;;21.40;99.90;;;;;;5082274;28;20261;-77
2023/08/16 00:48:41;;;;;;;0.03;0.03;;;21.30;99.90;;;;;;5078464;28;20391;-76
2023/08/16 00:51:08;;;;;;;0.20;0.20;;;21.20;99.90;;;;;;5082363;28;20050;-77
2023/08/16 00:53:36;;;;;;;0.38;0.38;;;21.20;99.90;;;;;;5083136;28;20024;-77
2023/08/16 00:56:03;;;;;;;0.00;0.00;;;21.20;99.90;;;;;;5075760;28;20036;-77
2023/08/16 00:58:29;;;;;;;1.30;0.52;;;21.20;99.90;;;;;;5077492;28;20043;-77
2023/08/16 01:00:55;;;;;;;0.05;0.05;;;21.10;99.90;;;;;;5080348;28;20115;-78
2023/08/16 01:03:21;;;;;;;0.00;0.00;;;21.10;99.90;;;;;;5082419;28;20109;-77
2023/08/16 01:05:47;;;;;;;1.50;0.43;;;21.00;99.90;;;;;;5081889;28;20487;-77
2023/08/16 01:08:12;;;;;;;0.47;0.47;;;20.90;99.90;;;;;;5080800;28;20133;-77
2023/08/16 01:11:07;;;;;;;0.00;0.00;;;20.80;99.90;;;;;;5080464;28;20021;-77
2023/08/16 01:13:54;;;;;;;0.43;0.30;;;20.70;99.90;;;;;;5081822;28;20917;-79
2023/08/16 01:16:21;;;;;;;0.20;0.20;;;20.60;99.90;;;;;;5080427;28;20024;-78
2023/08/16 01:18:48;;;;;;;0.13;0.13;;;20.60;99.90;;;;;;5080051;28;20043;-77
2023/08/16 01:21:15;;;;;;;0.08;0.08;;;20.50;99.90;;;;;;5081946;28;20034;-76
2023/08/16 01:23:50;;;;;;;0.10;0.10;;;20.50;99.90;;;;;;5080016;28;20088;-76
2023/08/16 01:26:36;;;;;;;0.20;0.20;;;20.50;99.90;;;;;;5075800;28;20479;-77
2023/08/16 01:29:03;;;;;;;;;;;20.50;99.90;;;;;;5079044;28;20082;-77
2023/08/16 01:31:29;;;;;;;0.20;0.20;;;20.50;99.90;;;;;;5080197;28;19912;-76
2023/08/16 01:33:55;;;;;;;0.15;0.15;;;20.50;99.90;;;;;;5077482;28;20044;-79
2023/08/16 01:36:20;;;;;;;0.30;0.30;;;20.50;99.90;;;;;;5079466;28;20032;-78
2023/08/16 01:38:46;;;;;;;1.10;0.77;;;20.40;99.90;;;;;;5080903;28;20079;-77
2023/08/16 01:41:35;;;;;;;0.10;0.10;;;20.50;99.90;;;;;;5082540;28;20032;-77
2023/08/16 01:44:01;;;;;;;0.00;0.00;;;20.60;99.90;;;;;;5073358;28;20776;-77
2023/08/16 01:46:29;;;;;;;0.20;0.20;;;20.70;99.90;;;;;;5082586;28;20027;-77
2023/08/16 01:48:56;;;;;;;0.10;0.10;;;20.80;99.90;;;;;;5082156;28;20047;-77
2023/08/16 01:51:23;;;;;;;0.30;0.30;;;20.90;99.90;;;;;;5081667;28;20020;-76
2023/08/16 01:53:52;;;;;;;;;;;21.00;99.90;;;;;;5073795;28;20034;-78
2023/08/16 01:56:18;;;;;;;0.20;0.20;;;21.10;99.90;;;;;;5076733;28;19930;-78
2023/08/16 01:58:44;;;;;;;0.63;0.57;;;21.00;99.90;;;;;;5081374;28;20585;-77
2023/08/16 02:01:09;;;;;;;0.00;0.00;;;21.00;99.90;;;;;;5081815;28;20262;-79
2023/08/16 02:03:35;;;;;;;0.30;0.30;;;20.90;99.90;;;;;;5082268;28;20028;-78
2023/08/16 02:06:01;;;;;;;0.63;0.37;;;20.70;99.90;;;;;;5082109;28;20476;-78
2023/08/16 02:08:26;;;;;;;0.40;0.40;;;20.50;99.90;;;;;;5080250;28;20056;-76
2023/08/16 02:10:52;;;;;;;0.13;0.13;;;20.30;99.90;;;;;;5080782;28;20476;-78
2023/08/16 02:13:18;;;;;;;0.13;0.13;;;20.30;99.90;;;;;;5080351;28;20028;-76
2023/08/16 02:15:43;;;;;;;0.40;0.40;;;20.30;99.90;;;;;;5081361;28;20044;-77
2023/08/16 02:18:10;;;;;;;0.33;0.33;;;20.30;99.90;;;;;;5081878;28;20040;-77
2023/08/16 02:20:38;;;;;;;0.40;0.20;;;20.30;99.90;;;;;;5081453;28;20027;-77
2023/08/16 02:23:05;;;;;;;0.22;0.22;;;20.30;99.90;;;;;;5074932;28;20031;-76
2023/08/16 02:25:31;;;;;;;;;;;20.20;99.90;;;;;;5080804;28;20058;-79
2023/08/16 02:27:56;;;;;;;0.10;0.10;;;20.10;99.90;;;;;;5083741;28;20317;-78
2023/08/16 02:30:22;;;;;;;0.63;0.50;;;20.00;99.90;;;;;;5084228;28;20067;-77
2023/08/16 02:32:48;;;;;;;0.53;0.53;;;20.00;99.90;;;;;;5083316;28;20032;-76
2023/08/16 02:35:14;;;;;;;0.20;0.20;;;20.00;99.90;;;;;;5085528;28;20682;-77
2023/08/16 02:37:42;;;;;;;0.40;0.40;;;20.00;99.90;;;;;;5082476;28;20126;-78
2023/08/16 02:40:08;;;;;;;1.25;0.65;;;20.00;99.90;;;;;;5083389;28;20529;-77
2023/08/16 02:42:34;;;;;;;0.15;0.15;;;20.10;99.90;;;;;;5081192;28;20038;-78
2023/08/16 02:44:59;;;;;;;0.10;0.10;;;20.00;99.90;;;;;;5083209;28;20028;-77
2023/08/16 02:47:25;;;;;;;0.37;0.37;;;20.00;99.90;;;;;;5085109;28;20028;-78
2023/08/16 02:49:51;;;;;;;0.07;0.07;;;20.00;99.90;;;;;;5082839;28;20031;-76
2023/08/16 02:52:17;;;;;;;0.10;0.10;;;20.00;99.90;;;;;;5079838;28;20027;-76
2023/08/16 02:54:42;;;;;;;0.13;0.13;;;20.00;99.90;;;;;;5081673;28;20054;-77
2023/08/16 02:57:08;;;;;;;0.20;0.20;;;20.00;99.90;;;;;;5079829;28;20489;-76
2023/08/16 02:59:41;;;;;;;0.57;0.30;;;20.00;99.90;;;;;;5083411;28;20047;-77
2023/08/16 03:02:07;;;;;;;0.45;0.45;;;20.00;99.90;;;;;;5082436;28;21177;-76
2023/08/16 03:04:33;;;;;;;0.57;0.57;;;20.10;99.90;;;;;;5080263;28;20033;-76
2023/08/16 03:06:58;;;;;;;0.00;0.00;;;20.20;99.90;;;;;;5084542;28;20064;-76
2023/08/16 03:09:24;;;;;;;0.53;0.43;;;20.20;99.90;;;;;;5083797;28;20040;-79
2023/08/16 03:11:50;;;;;;;0.63;0.53;;;20.30;99.90;;;;;;5083372;28;20031;-77
2023/08/16 03:14:16;;;;;;;0.10;0.10;;;20.30;99.90;;;;;;5083443;28;20410;-76
2023/08/16 03:16:41;;;;;;;0.20;0.20;;;20.40;99.90;;;;;;5082294;28;20115;-77
2023/08/16 03:19:07;;;;;;;0.00;0.00;;;20.40;99.90;;;;;;5090499;28;20032;-76
2023/08/16 03:21:34;;;;;;;0.27;0.27;;;20.40;99.90;;;;;;5084652;28;20020;-75
2023/08/16 03:24:00;;;;;;;0.20;0.20;;;20.40;99.90;;;;;;5082820;28;20380;-77
2023/08/16 03:26:26;;;;;;;0.10;0.10;;;20.20;99.90;;;;;;5081663;28;20039;-77
2023/08/16 03:28:51;;;;;;;0.00;0.00;;;20.20;99.90;;;;;;5083704;28;20114;-77
2023/08/16 03:31:18;;;;;;;0.63;0.63;;;20.00;99.90;;;;;;5075004;28;20041;-77
2023/08/16 03:33:44;;;;;;;0.20;0.20;;;19.90;99.90;;;;;;5081303;28;20827;-78
2023/08/16 03:36:10;;;;;;;1.53;1.23;;;19.80;99.90;;;;;;5083783;28;20034;-78
2023/08/16 03:38:35;;;;;;;0.43;0.40;;;19.80;99.90;;;;;;5083013;28;20121;-78
2023/08/16 03:41:01;;;;;;;0.00;0.00;;;19.80;99.90;;;;;;5083253;28;20181;-79
2023/08/16 03:43:28;;;;;;;0.40;0.40;;;19.80;99.90;;;;;;5083741;28;20024;-79
2023/08/16 03:45:54;;;;;;;0.15;0.15;;;19.80;99.90;;;;;;5082984;28;20063;-78
2023/08/16 03:48:20;;;;;;;0.73;0.23;;;19.80;99.90;;;;;;5083858;28;20063;-77
2023/08/16 03:50:46;;;;;;;0.10;0.10;;;19.70;99.90;;;;;;5080009;28;20021;-77
2023/08/16 03:53:11;;;;;;;0.30;0.30;;;19.70;99.90;;;;;;5083218;28;20391;-76
2023/08/16 03:55:37;;;;;;;0.30;0.30;;;19.70;99.90;;;;;;5082485;28;20055;-77
2023/08/16 03:58:03;;;;;;;0.10;0.10;;;19.80;99.90;;;;;;5083494;28;20044;-78
2023/08/16 04:00:29;;;;;;;0.25;0.25;;;19.80;99.90;;;;;;5083051;28;20112;-78
2023/08/16 04:02:55;;;;;;;0.20;0.20;;;19.70;99.90;;;;;;5083653;28;20059;-80
2023/08/16 04:05:23;;;;;;;0.17;0.17;;;19.80;99.90;;;;;;5083887;28;20550;-78
2023/08/16 04:07:49;;;;;;;0.10;0.10;;;19.90;99.90;;;;;;5083018;28;20055;-77
2023/08/16 04:10:15;;;;;;;0.20;0.20;;;19.90;99.90;;;;;;5084015;28;20696;-77
2023/08/16 04:12:40;;;;;;;0.10;0.10;;;20.00;99.90;;;;;;5083676;28;20024;-77
2023/08/16 04:15:07;;;;;;;6.00;1.20;;;20.10;99.90;;;;;;5083361;28;20486;-77
2023/08/16 04:17:33;;;;;;;1.25;0.85;;;20.10;99.90;;;;;;5083289;28;20036;-77
2023/08/16 04:19:59;;;;;;;0.00;0.00;;;20.20;99.90;;;;;;5083519;28;20036;-77
2023/08/16 04:22:24;;;;;;;0.32;0.32;;;20.20;99.90;;;;;;5082822;28;20258;-77
2023/08/16 04:24:50;;;;;;;0.03;0.03;;;20.20;99.90;;;;;;5082378;28;20028;-78
2023/08/16 04:27:16;;;;;;;0.13;0.13;;;20.20;99.90;;;;;;5068925;28;20025;-77
2023/08/16 04:29:41;;;;;;;0.23;0.23;;;20.10;99.90;;;;;;5083075;28;20425;-78
2023/08/16 04:32:07;;;;;;;0.10;0.10;;;20.20;99.90;;;;;;5082851;28;20032;-75
2023/08/16 04:34:33;;;;;;;0.40;0.40;;;20.20;99.90;;;;;;5077716;28;20395;-76
2023/08/16 04:36:58;;;;;;;0.00;0.00;;;20.20;99.90;;;;;;5080522;28;20060;-75
2023/08/16 04:39:24;;;;;;;0.33;0.33;;;20.30;99.90;;;;;;5081252;28;20024;-74
2023/08/16 04:41:50;;;;;;;0.30;0.30;;;20.30;99.90;;;;;;5080952;28;20479;-76
2023/08/16 04:44:16;;;;;;;0.37;0.10;;;20.30;99.90;;;;;;5080104;28;20117;-75
2023/08/16 04:46:41;;;;;;;0.30;0.30;;;20.30;99.90;;;;;;5083865;28;20060;-76
2023/08/16 04:49:07;;;;;;;0.00;0.00;;;20.20;99.90;;;;;;5081085;28;20031;-74
2023/08/16 04:51:33;;;;;;;0.10;0.10;;;20.30;99.90;;;;;;5082608;28;20111;-75
2023/08/16 04:53:58;;;;;;;0.93;0.73;;;20.40;99.90;;;;;;5083144;28;20376;-75
2023/08/16 04:56:24;;;;;;;5.23;0.93;;;20.40;99.90;;;;;;5082250;28;20740;-75
2023/08/16 04:58:50;;;;;;;0.10;0.10;;;20.30;99.90;;;;;;5080425;28;20047;-76
2023/08/16 05:01:18;;;;;;;0.10;0.10;;;20.30;99.90;;;;;;5071240;28;20056;-75
2023/08/16 05:03:50;;;;;;;0.30;0.30;;;20.40;99.90;;;;;;5081202;28;20024;-75
2023/08/16 05:06:16;;;;;;;0.00;0.00;;;20.50;99.90;;;;;;5082988;28;20028;-75
2023/08/16 05:08:42;;;;;;;0.00;0.00;;;20.60;99.90;;;;;;5081838;28;20024;-78
2023/08/16 05:11:09;;;;;;;0.00;0.00;;;20.70;99.90;;;;;;5078558;28;20048;-76
2023/08/16 05:13:34;;;;;;;0.40;0.40;;;20.80;99.90;;;;;;5079947;28;20823;-76
2023/08/16 05:16:00;;;;;;;0.00;0.00;;;20.80;99.90;;;;;;5075757;28;20032;-78
2023/08/16 05:18:26;;;;;;;0.07;0.07;;;20.90;99.90;;;;;;5081527;28;20056;-77
2023/08/16 05:20:54;;;;;;;0.20;0.20;;;20.90;99.90;;;;;;5081001;28;20104;-81
2023/08/16 05:23:20;;;;;;;0.25;0.25;;;20.90;99.90;;;;;;5078407;28;20399;-81
2023/08/16 05:25:46;;;;;;;0.00;0.00;;;21.00;99.90;;;;;;5081251;28;20016;-77
2023/08/16 05:28:11;;;;;;;0.30;0.30;;;20.80;99.90;;;;;;5080403;28;20079;-81
2023/08/16 05:30:37;;;;;;;1.03;0.80;;;20.70;99.90;;;;;;5079621;28;20023;-77
2023/08/16 05:33:03;;;;;;;0.30;0.30;;;20.60;99.90;;;;;;5078619;28;20496;-77
2023/08/16 05:35:34;;;;;;;0.20;0.20;;;20.50;99.90;;;;;;5080177;28;20020;-77
2023/08/16 05:38:01;;;;;;;0.00;0.00;;;20.40;99.90;;;;;;5080566;28;20490;-79
2023/08/16 05:40:27;;;;;;;0.00;0.00;;;20.10;99.90;;;;;;5081727;28;20046;-77
2023/08/16 05:42:54;;;;;;;0.00;0.00;;;20.10;99.90;;;;;;5077043;28;20029;-77
2023/08/16 05:45:21;;;;;;;0.15;0.15;;;20.20;99.90;;;;;;5079711;28;20613;-76
2023/08/16 05:47:47;;;;;;;0.10;0.10;;;20.20;99.90;;;;;;5082100;28;20097;-76
2023/08/16 05:50:13;;;;;;;0.07;0.07;;;20.30;99.90;;;;;;5082088;28;20044;-77
2023/08/16 05:52:38;;;;;;;0.33;0.33;;;20.30;99.90;;;;;;5082395;28;20028;-77
2023/08/16 05:55:04;;;;;;;0.73;0.47;;;20.40;99.90;;;;;;5083095;28;20064;-77
2023/08/16 05:57:30;;;;;;;0.40;0.33;;;20.40;99.90;;;;;;5079670;28;20843;-78
2023/08/16 05:59:56;;;;;;;0.00;0.00;;;20.50;99.90;;;;;;5080319;28;20503;-76
2023/08/16 06:02:23;;;;;;;0.10;0.10;;;20.60;99.90;;;;;;5085343;28;20383;-77
2023/08/16 06:04:49;;;;;;;0.15;0.15;;;20.20;99.90;;;;;;5079488;28;20028;-75
2023/08/16 06:07:16;;;;;;;0.47;0.47;;;19.90;99.90;;;;;;5085941;28;20173;-78
2023/08/16 06:09:42;;;;;;;0.10;0.10;;;20.00;99.90;;;;;;5086866;28;20058;-77
2023/08/16 06:12:07;;;;;;;0.37;0.37;;;20.00;99.90;;;;;;5085842;28;20430;-77
2023/08/16 06:14:33;;;;;;;0.10;0.10;;;19.50;99.90;;;;;;5085939;28;20032;-77
2023/08/16 06:16:59;;;;;;;0.60;0.60;;;19.40;99.90;;;;;;5085523;28;20036;-78
2023/08/16 06:19:24;;;;;;;0.10;0.10;;;19.10;99.90;;;;;;5084593;28;20127;-76
2023/08/16 06:21:50;;;;;;;1.03;0.60;;;19.10;99.90;;;;;;5085525;28;20031;-76
2023/08/16 06:24:16;;;;;;;0.00;0.00;;;18.60;99.90;;;;;;5085656;28;20139;-76
2023/08/16 06:26:42;;;;;;;0.00;0.00;;;18.00;99.90;;;;;;5084543;28;20495;-75
2023/08/16 06:29:08;;;;;;;0.00;0.00;;;17.80;99.90;;;;;;5085895;28;20025;-74
2023/08/16 06:31:33;;;;;;;0.10;0.10;;;17.80;99.90;;;;;;5084925;28;20095;-75
2023/08/16 06:34:00;;;;;;;0.13;0.13;;;17.80;99.90;;;;;;5085509;28;20032;-74
2023/08/16 06:36:26;;;;;;;;;;;17.80;99.90;;;;;;5086345;28;20064;-76
2023/08/16 06:38:53;;;;;;;0.00;0.00;;;17.90;99.90;;;;;;5085360;28;20035;-76
2023/08/16 06:41:19;;;;;;;0.20;0.20;;;17.90;99.90;;;;;;5085911;28;20335;-75
2023/08/16 06:43:45;;;;;;;0.90;0.88;;;17.90;99.90;;;;;;5085233;28;20695;-74
2023/08/16 06:46:10;;;;;;;0.00;0.00;;;17.90;99.90;;;;;;5085787;28;20040;-77
2023/08/16 06:48:37;;;;;;;0.17;0.17;;;18.00;99.90;;;;;;5085097;28;20497;-75
2023/08/16 06:51:03;;;;;;;0.15;0.15;;;18.10;99.90;;;;;;5085566;28;20132;-74
2023/08/16 06:53:30;;;;;;;0.67;0.67;;;18.30;99.90;;;;;;5084726;28;20489;-75
2023/08/16 06:55:55;;;;;;;0.22;0.22;;;19.40;99.90;;;;;;5081634;28;20028;-75
2023/08/16 06:58:21;;;;;;;0.00;0.00;;;20.90;99.90;;;;;;5084707;28;20445;-76
2023/08/16 07:00:47;;;;;;;1.40;0.30;;;21.40;99.90;;;;;;5084575;28;20036;-74
2023/08/16 07:03:13;;;;;;;0.10;0.10;;;21.30;99.90;;;;;;5084453;28;20290;-74
2023/08/16 07:05:39;;;;;;;0.00;0.00;;;20.20;99.90;;;;;;5083660;28;20843;-74
2023/08/16 07:08:06;;;;;;;0.17;0.17;;;20.40;99.90;;;;;;5082105;28;20108;-75
2023/08/16 07:10:31;;;;;;;;;;;21.20;99.90;;;;;;5082936;28;20542;-76
2023/08/16 07:12:57;;;;;;;0.10;0.10;;;22.20;99.90;;;;;;5071769;28;19919;-74
2023/08/16 07:15:23;;;;;;;0.00;0.00;;;22.40;99.90;;;;;;5076766;28;20035;-76
2023/08/16 07:17:48;;;;;;;0.00;0.00;;;21.80;99.90;;;;;;5080795;28;20032;-76
2023/08/16 07:20:14;;;;;;;0.00;0.00;;;22.40;99.90;;;;;;5083094;28;20098;-74
2023/08/16 07:22:40;;;;;;;0.00;0.00;;;22.40;99.90;;;;;;5085108;28;20343;-75
2023/08/16 07:25:07;;;;;;;1.10;0.30;;;22.10;99.90;;;;;;5083493;28;20860;-75
2023/08/16 07:27:33;;;;;;;0.00;0.00;;;22.70;99.90;;;;;;5078680;28;20028;-78
2023/08/16 07:29:59;;;;;;;0.00;0.00;;;22.30;99.90;;;;;;5082409;28;20038;-75
2023/08/16 07:32:25;;;;;;;0.10;0.10;;;21.60;99.90;;;;;;5082405;28;20131;-74
2023/08/16 07:34:50;;;;;;;0.00;0.00;;;21.10;99.90;;;;;;5083243;28;20254;-75
2023/08/16 07:37:17;;;;;;;0.17;0.17;;;20.70;99.90;;;;;;5083240;28;20490;-75
2023/08/16 07:39:43;;;;;;;;;;;20.40;99.90;;;;;;5074917;28;20013;-76
2023/08/16 07:42:09;;;;;;;0.10;0.10;;;20.40;99.90;;;;;;5083020;28;20031;-75
2023/08/16 07:44:36;;;;;;;0.25;0.20;;;20.40;99.90;;;;;;5081155;28;20505;-77
2023/08/16 07:47:02;;;;;;;0.20;0.20;;;20.40;99.90;;;;;;5082762;28;20032;-78
2023/08/16 07:49:29;;;;;;;0.13;0.13;;;20.60;99.90;;;;;;5083780;28;20028;-74
2023/08/16 07:51:56;;;;;;;0.10;0.10;;;20.50;99.90;;;;;;5083961;28;20161;-75
2023/08/16 07:54:22;;;;;;;0.10;0.10;;;20.40;99.90;;;;;;5083959;28;20020;-76
2023/08/16 07:56:48;;;;;;;0.75;0.32;;;20.40;99.90;;;;;;5079523;28;20024;-75
2023/08/16 07:59:14;;;;;;;0.00;0.00;;;20.70;99.90;;;;;;5079133;28;20032;-75
2023/08/16 08:01:43;;;;;;;0.00;0.00;;;21.10;99.90;;;;;;5081286;28;20101;-76
2023/08/16 08:04:09;;;;;;;0.13;0.13;;;21.90;99.90;;;;;;5083178;28;20558;-75
2023/08/16 08:06:35;;;;;;;;;;;23.10;99.90;;;;;;5083340;28;20219;-76
2023/08/16 08:09:00;;;;;;;0.00;0.00;;;25.60;99.90;;;;;;5084081;28;20642;-75
2023/08/16 08:11:26;;;;;;;0.00;0.00;;;28.30;99.90;;;;;;5083290;28;20028;-76
2023/08/16 08:13:52;;;;;;;0.00;0.00;;;30.20;99.90;;;;;;5083399;28;20027;-77
2023/08/16 08:16:17;;;;;;;0.30;0.30;;;31.00;99.90;;;;;;5082314;28;20024;-76
2023/08/16 08:18:43;;;;;;;0.00;0.00;;;30.20;99.50;;;;;;5083044;28;20044;-75
2023/08/16 08:21:10;;;;;;;0.00;0.00;;;30.70;99.20;;;;;;5083335;28;20784;-76
2023/08/16 08:23:36;;;;;;;0.28;0.28;;;30.30;98.40;;;;;;5082470;28;20026;-77
2023/08/16 08:26:01;;;;;;;0.20;0.20;;;28.00;99.90;;;;;;5073467;28;20044;-78
2023/08/16 08:28:27;;;;;;;0.00;0.00;;;28.10;99.90;;;;;;5082006;28;20066;-74
2023/08/16 08:30:53;;;;;;;;;;;29.30;97.20;;;;;;5084611;28;20054;-75
2023/08/16 08:33:18;;;;;;;0.22;0.20;;;30.50;98.20;;;;;;5082519;28;20646;-77
2023/08/16 08:35:44;;;;;;;;;;;31.70;94.60;;;;;;5084453;28;20032;-75
2023/08/16 08:38:10;;;;;;;0.00;0.00;;;27.40;99.10;;;;;;5082385;28;19920;-76
2023/08/16 08:40:37;;;;;;;0.13;0.13;;;26.00;99.90;;;;;;5081733;28;20048;-76
2023/08/16 08:43:04;;;;;;;0.10;0.10;;;25.70;99.90;;;;;;5082621;28;20029;-75
2023/08/16 08:45:34;;;;;;;0.00;0.00;;;26.00;99.90;;;;;;5083805;28;20122;-75
2023/08/16 08:48:00;;;;;;;0.00;0.00;;;26.70;99.90;;;;;;5082168;28;20028;-76
2023/08/16 08:50:30;;;;;;;0.28;0.28;;;25.90;99.90;;;;;;5083777;28;20020;-77
2023/08/16 08:52:56;;;;;;;0.25;0.25;;;26.00;99.90;;;;;;5083148;28;20035;-75
2023/08/16 08:55:25;;;;;;;;;;;25.20;99.90;;;;;;5083746;28;20028;-75
2023/08/16 08:57:54;;;;;;;0.00;0.00;;;25.10;99.90;;;;;;5083197;28;20011;-76
2023/08/16 09:00:21;;;;;;;0.00;0.00;;;25.20;99.90;;;;;;5076197;28;20103;-76
2023/08/16 09:02:51;;;;;;;0.00;0.00;;;25.90;99.90;;;;;;5083044;28;20024;-77
2023/08/16 09:05:20;;;;;;;0.00;0.00;;;27.00;99.90;;;;;;5074692;28;20024;-75
2023/08/16 09:07:46;;;;;;;0.00;0.00;;;27.80;99.90;;;;;;5082761;28;20052;-75
2023/08/16 09:10:13;;;;;;;0.00;0.00;;;27.40;99.90;;;;;;5082834;28;20495;-78
2023/08/16 09:12:39;;;;;;;0.15;0.10;;;27.20;99.90;;;;;;5082690;28;20106;-75
2023/08/16 09:15:07;;;;;;;0.30;0.25;;;26.80;99.90;;;;;;5080985;28;20024;-76
2023/08/16 09:17:33;;;;;;;0.00;0.00;;;27.30;99.90;;;;;;5082301;28;20028;-76
2023/08/16 09:20:00;;;;;;;;;;;27.00;99.90;;;;;;5083066;28;20028;-76
2023/08/16 09:22:27;;;;;;;0.00;0.00;;;26.80;99.90;;;;;;5082618;28;20345;-77
2023/08/16 09:24:56;;;;;;;0.00;0.00;;;27.10;99.90;;;;;;5082617;28;20020;-76
2023/08/16 09:27:26;;;;;;;0.00;0.00;;;28.20;99.90;;;;;;5073118;28;20051;-79
2023/08/16 09:29:55;;;;;;;0.00;0.00;;;28.60;99.90;;;;;;5082269;28;20024;-79
2023/08/16 09:32:21;;;;;;;0.00;0.00;;;27.50;99.90;;;;;;5082775;28;20070;-77
2023/08/16 09:34:48;;;;;;;0.00;0.00;;;27.40;99.90;;;;;;5082110;28;20098;-76
2023/08/16 09:37:15;;;;;;;0.00;0.00;;;29.60;99.90;;;;;;5074316;28;20070;-76
2023/08/16 09:39:40;;;;;;;0.00;0.00;;;30.20;98.70;;;;;;5084682;28;20035;-77
2023/08/16 09:42:10;;;;;;;0.00;0.00;;;29.60;99.90;;;;;;5085539;28;20028;-76
2023/08/16 09:44:37;;;;;;;0.25;0.25;;;28.40;99.50;;;;;;5085826;28;20032;-76
2023/08/16 09:47:15;;;;;;;0.00;0.00;;;27.60;99.90;;;;;;5086146;28;20026;-76
2023/08/16 09:49:43;;;;;;;0.00;0.00;;;29.30;99.90;;;;;;5085394;28;20149;-78
2023/08/16 09:52:12;;;;;;;4.03;0.40;;;30.80;97.90;;;;;;5086446;28;20028;-77
2023/08/16 09:54:38;;;;;;;0.10;0.10;;;31.60;96.30;;;;;;5085911;28;20494;-76
2023/08/16 09:57:07;;;;;;;0.03;0.03;;;31.80;96.10;;;;;;5082995;28;20020;-75
2023/08/16 09:59:33;;;;;;;0.10;0.05;;;31.60;95.90;;;;;;5084913;28;20028;-78
2023/08/16 10:01:58;;;;;;;;;;;30.90;94.60;;;;;;5078092;28;20139;-75
2023/08/16 10:04:25;;;;;;;0.00;0.00;;;29.90;96.70;;;;;;5085601;28;20138;-76
2023/08/16 10:06:50;;;;;;;;;;;29.10;97.50;;;;;;5086246;28;20125;-76
2023/08/16 10:09:17;;;;;;;0.00;0.00;;;28.80;98.30;;;;;;5086056;28;19912;-75
2023/08/16 10:11:44;;;;;;;0.00;0.00;;;28.40;98.20;;;;;;5085611;28;20032;-76
2023/08/16 10:14:12;;;;;;;0.00;0.00;;;28.70;99.10;;;;;;5084980;28;20093;-76
2023/08/16 10:16:38;;;;;;;0.00;0.00;;;29.40;97.00;;;;;;5084334;28;20028;-76
2023/08/16 10:19:04;;;;;;;;;;;29.60;97.20;;;;;;5086024;28;20034;-76
2023/08/16 10:21:33;;;;;;;0.10;0.10;;;29.80;97.20;;;;;;5085975;28;20008;-76
2023/08/16 10:24:00;;;;;;;0.40;0.32;;;29.00;98.60;;;;;;5085746;28;20105;-77
2023/08/16 10:26:30;;;;;;;0.15;0.10;;;28.50;99.40;;;;;;5081326;28;20020;-76
2023/08/16 10:29:01;;;;;;;0.00;0.00;;;28.30;99.90;;;;;;5085465;28;20829;-78
2023/08/16 10:31:34;;;;;;;0.00;0.00;;;28.60;99.90;;;;;;5084748;28;20676;-75
2023/08/16 10:34:03;;;;;;;0.00;0.00;;;28.40;99.40;;;;;;5076045;28;20106;-77
2023/08/16 10:36:29;;;;;;;0.20;0.20;;;28.20;99.60;;;;;;5085697;28;20024;-76
2023/08/16 10:38:56;;;;;;;0.20;0.20;;;28.20;98.70;;;;;;5085497;28;20032;-77
2023/08/16 10:41:22;;;;;;;2.08;0.52;;;28.10;99.90;;;;;;5085470;28;20066;-78
2023/08/16 10:43:53;;;;;;;0.20;0.10;;;28.50;99.90;;;;;;5085324;28;20038;-76
2023/08/16 10:46:46;;;;;;;0.00;0.00;;;28.20;99.90;;;;;;5084614;28;20085;-75
2023/08/16 10:49:11;;;;;;;0.20;0.20;;;28.60;99.90;;;;;;5078830;28;20016;-77
2023/08/16 10:51:43;;;;;;;0.00;0.00;;;28.80;98.80;;;;;;5084841;28;20035;-76
2023/08/16 10:54:09;;;;;;;0.00;0.00;;;29.00;98.20;;;;;;5084881;28;20036;-76
2023/08/16 10:56:44;;;;;;;0.00;0.00;;;28.90;97.90;;;;;;5084452;28;20032;-76
2023/08/16 10:59:10;;;;;;;0.00;0.00;;;29.30;98.80;;;;;;5083972;28;20032;-75
2023/08/16 11:01:46;;;;;;;0.00;0.00;;;29.00;98.20;;;;;;5084861;28;20103;-75
2023/08/16 11:04:12;;;;;;;0.30;0.30;;;29.20;99.90;;;;;;5084858;28;20024;-77
2023/08/16 11:06:39;;;;;;;0.03;0.03;;;29.10;99.00;;;;;;5081677;28;20051;-76
2023/08/16 11:09:06;;;;;;;0.00;0.00;;;29.00;99.10;;;;;;5084642;28;20032;-76
2023/08/16 11:11:32;;;;;;;0.05;0.05;;;29.00;98.80;;;;;;5083019;28;20172;-76
2023/08/16 11:14:01;;;;;;;0.05;0.05;;;29.30;99.70;;;;;;5082486;28;20024;-77
2023/08/16 11:16:28;;;;;;;0.05;0.05;;;29.60;99.00;;;;;;5079749;28;20028;-75
2023/08/16 11:18:59;;;;;;;0.00;0.00;;;29.60;98.10;;;;;;5083806;28;20081;-76
2023/08/16 11:21:25;;;;;;;0.00;0.00;;;29.20;98.20;;;;;;5084306;28;20085;-76
2023/08/16 11:23:53;;;;;;;0.00;0.00;;;29.40;99.40;;;;;;5084286;28;20020;-76
2023/08/16 11:26:19;;;;;;;0.03;0.03;;;29.70;99.90;;;;;;5083523;28;20051;-76
2023/08/16 11:28:45;;;;;;;0.00;0.00;;;29.80;99.90;;;;;;5084322;28;20066;-78
2023/08/16 11:31:11;;;;;;;0.00;0.00;;;29.60;99.90;;;;;;5083793;28;20518;-77
2023/08/16 11:33:40;;;;;;;0.00;0.00;;;29.50;99.30;;;;;;5083535;28;20051;-75
2023/08/16 11:36:11;;;;;;;1.58;0.60;;;29.50;99.90;;;;;;5083880;28;20028;-77
2023/08/16 11:38:38;;;;;;;0.15;0.15;;;29.70;97.50;;;;;;5081252;28;20077;-75
2023/08/16 11:41:05;;;;;;;0.75;0.70;;;29.60;97.80;;;;;;5083975;28;20020;-76
2023/08/16 11:43:35;;;;;;;0.10;0.10;;;29.40;97.30;;;;;;5083728;28;20107;-77
2023/08/16 11:46:01;;;;;;;0.00;0.00;;;29.30;97.40;;;;;;5084286;28;20763;-76
2023/08/16 11:48:29;;;;;;;0.20;0.20;;;29.30;96.60;;;;;;5083580;28;20024;-75
2023/08/16 11:50:58;;;;;;;0.38;0.38;;;29.40;96.50;;;;;;5083504;28;20032;-77
2023/08/16 11:53:35;;;;;;;0.00;0.00;;;29.20;95.50;;;;;;5084160;28;20066;-76
2023/08/16 11:56:04;;;;;;;0.00;0.00;;;29.20;96.40;;;;;;5083643;28;20097;-77
2023/08/16 11:58:43;;;;;;;2.35;0.55;;;29.00;95.20;;;;;;5083559;28;20068;-77
2023/08/16 12:01:11;;;;;;;0.00;0.00;;;28.70;94.90;;;;;;5081858;28;20107;-76
2023/08/16 12:03:37;;;;;;;0.00;0.00;;;28.90;95.90;;;;;;5083561;28;20024;-76
2023/08/16 12:06:09;;;;;;;0.20;0.20;;;29.00;95.90;;;;;;5080381;28;20032;-77
2023/08/16 12:08:35;;;;;;;0.47;0.17;;;28.90;95.20;;;;;;5080071;28;20625;-77
2023/08/16 12:11:02;;;;;;;0.00;0.00;;;28.60;95.60;;;;;;5083376;28;20020;-76
2023/08/16 12:13:29;;;;;;;0.10;0.00;;;28.70;94.90;;;;;;5083523;28;20035;-79
2023/08/16 12:15:54;;;;;;;0.00;0.00;;;28.90;96.60;;;;;;5079982;28;20838;-76
2023/08/16 12:18:21;;;;;;;0.03;0.00;;;29.20;96.20;;;;;;5082101;28;20040;-77
2023/08/16 12:20:52;;;;;;;0.30;0.10;;;29.20;94.90;;;;;;5083548;28;20032;-75
2023/08/16 12:23:19;;;;;;;0.10;0.10;;;29.40;96.20;;;;;;5083093;28;20027;-76
2023/08/16 12:25:44;;;;;;;0.00;0.00;;;29.40;95.10;;;;;;5076467;28;20131;-75
2023/08/16 12:28:10;;;;;;;0.00;0.00;;;29.30;94.80;;;;;;5083812;28;20782;-76
2023/08/16 12:30:37;;;;;;;0.00;0.00;;;29.20;93.40;;;;;;5083450;28;20081;-77
2023/08/16 12:33:05;;;;;;;0.05;0.05;;;28.90;93.80;;;;;;5083495;28;20128;-76
2023/08/16 12:35:33;;;;;;;0.43;0.30;;;28.90;94.20;;;;;;5083241;28;20047;-76
2023/08/16 12:37:59;;;;;;;0.10;0.10;;;29.00;92.80;;;;;;5083215;28;20124;-77
2023/08/16 12:40:28;;;;;;;0.00;0.00;;;28.90;93.70;;;;;;5083292;28;20028;-75
2023/08/16 12:42:54;;;;;;;0.00;0.00;;;29.20;93.00;;;;;;5081648;28;20039;-77
2023/08/16 12:45:20;;;;;;;;;;;29.20;93.60;;;;;;5084173;28;20027;-75
2023/08/16 12:47:46;;;;;;;0.13;0.13;;;29.00;92.90;;;;;;5082789;28;19908;-79
2023/08/16 12:50:12;;;;;;;0.00;0.00;;;29.00;94.30;;;;;;5083118;28;20032;-77